createdAt,value
2018-09-19T00:01:29.940Z,6.83
2018-09-19T00:03:58.839Z,5.13
2018-09-19T00:06:28.424Z,5.97
2018-09-19T00:08:58.174Z,5.83
2018-09-19T00:11:27.021Z,5.57
2018-09-19T00:13:55.817Z,5.47
2018-09-19T00:16:24.605Z,5.70
2018-09-19T00:18:53.395Z,5.60
2018-09-19T00:21:23.313Z,5.90
2018-09-19T00:23:52.102Z,5.30
2018-09-19T00:26:20.886Z,6.40
2018-09-19T00:28:49.723Z,5.50
2018-09-19T00:31:19.663Z,6.60
2018-09-19T00:33:49.449Z,5.03
2018-09-19T00:36:19.223Z,7.53
2018-09-19T00:38:49.189Z,5.67
2018-09-19T00:41:19.052Z,5.20
2018-09-19T00:43:48.120Z,5.40
2018-09-19T00:46:18.457Z,6.43
2018-09-19T00:48:48.121Z,5.17
2018-09-19T00:51:17.689Z,6.83
2018-09-19T00:53:47.520Z,4.80
2018-09-19T00:56:16.715Z,4.97
2018-09-19T00:58:46.690Z,5.10
2018-09-19T01:01:15.637Z,4.77
2018-09-19T01:03:44.650Z,5.70
2018-09-19T01:06:14.060Z,4.97
2018-09-19T01:08:43.506Z,4.90
2018-09-19T01:11:12.271Z,4.90
2018-09-19T01:13:41.063Z,4.97
2018-09-19T01:16:09.855Z,4.87
2018-09-19T01:18:39.231Z,5.43
2018-09-19T01:21:08.934Z,4.97
2018-09-19T01:23:38.634Z,5.10
2018-09-19T01:26:07.452Z,4.67
2018-09-19T01:28:36.309Z,4.97
2018-09-19T01:31:06.114Z,4.77
2018-09-19T01:33:34.916Z,4.83
2018-09-19T01:37:06.690Z,5.03
2018-09-19T01:39:35.540Z,4.77
2018-09-19T01:42:04.490Z,4.53
2018-09-19T01:44:33.347Z,4.37
2018-09-19T01:47:02.986Z,4.80
2018-09-19T01:49:31.789Z,4.47
2018-09-19T01:52:01.592Z,5.33
2018-09-19T01:54:30.547Z,4.17
2018-09-19T01:56:59.633Z,4.03
2018-09-19T01:59:29.337Z,4.20
2018-09-19T02:01:58.857Z,4.50
2018-09-19T02:04:27.620Z,4.17
2018-09-19T02:06:57.014Z,4.67
2018-09-19T02:09:26.332Z,4.53
2018-09-19T02:11:55.950Z,3.90
2018-09-19T02:14:24.700Z,4.67
2018-09-19T02:16:53.472Z,4.40
2018-09-19T02:19:22.808Z,5.43
2018-09-19T02:21:52.322Z,4.30
2018-09-19T02:24:21.242Z,4.67
2018-09-19T02:26:50.009Z,5.13
2018-09-19T02:29:19.676Z,4.23
2018-09-19T02:31:48.731Z,5.20
2018-09-19T02:34:18.086Z,4.10
2018-09-19T02:36:46.923Z,4.63
2018-09-19T02:39:15.747Z,4.20
2018-09-19T02:41:44.767Z,5.10
2018-09-19T02:44:14.344Z,4.20
2018-09-19T02:46:43.881Z,4.77
2018-09-19T02:49:12.644Z,4.67
2018-09-19T02:51:41.460Z,4.77
2018-09-19T02:54:10.709Z,5.10
2018-09-19T02:56:39.955Z,6.40
2018-09-19T02:59:09.567Z,5.00
2018-09-19T03:01:38.795Z,5.70
2018-09-19T03:04:07.810Z,4.43
2018-09-19T03:06:37.623Z,5.00
2018-09-19T03:09:07.281Z,4.37
2018-09-19T03:11:37.012Z,4.57
2018-09-19T03:14:05.859Z,4.60
2018-09-19T03:16:34.728Z,4.90
2018-09-19T03:19:04.049Z,4.93
2018-09-19T03:21:33.956Z,5.57
2018-09-19T03:24:02.792Z,4.73
2018-09-19T03:26:31.669Z,5.87
2018-09-19T03:29:01.335Z,5.23
2018-09-19T03:31:30.324Z,4.73
2018-09-19T03:33:59.363Z,5.20
2018-09-19T03:36:28.668Z,5.10
2018-09-19T03:38:57.656Z,5.60
2018-09-19T03:41:26.666Z,5.47
2018-09-19T03:43:55.534Z,6.23
2018-09-19T03:46:25.427Z,4.60
2018-09-19T03:48:54.347Z,5.40
2018-09-19T03:51:23.926Z,5.07
2018-09-19T03:53:53.437Z,5.30
2018-09-19T03:56:22.288Z,5.20
2018-09-19T03:58:51.670Z,5.40
2018-09-19T04:01:20.457Z,4.83
2018-09-19T04:03:49.400Z,5.27
2018-09-19T04:06:19.702Z,5.40
2018-09-19T04:08:49.354Z,4.83
2018-09-19T04:11:19.028Z,5.03
2018-09-19T04:13:48.017Z,4.97
2018-09-19T04:16:17.133Z,5.63
2018-09-19T04:18:46.879Z,4.87
2018-09-19T04:21:17.002Z,5.40
2018-09-19T04:23:46.048Z,5.37
2018-09-19T04:26:14.910Z,5.37
2018-09-19T04:28:43.862Z,5.23
2018-09-19T04:31:13.209Z,5.07
2018-09-19T04:33:42.061Z,5.80
2018-09-19T04:36:10.959Z,5.30
2018-09-19T04:38:40.093Z,6.23
2018-09-19T04:41:08.932Z,5.47
2018-09-19T04:43:38.257Z,6.00
2018-09-19T04:46:08.050Z,5.07
2018-09-19T04:48:37.005Z,5.87
2018-09-19T04:51:06.312Z,4.57
2018-09-19T04:53:36.207Z,5.63
2018-09-19T04:56:05.785Z,5.17
2018-09-19T04:58:35.534Z,6.17
2018-09-19T05:01:04.992Z,5.00
2018-09-19T05:03:34.320Z,5.73
2018-09-19T05:06:03.192Z,5.53
2018-09-19T05:08:32.763Z,5.17
2018-09-19T05:11:02.069Z,4.90
2018-09-19T05:13:31.271Z,5.43
2018-09-19T05:16:00.328Z,5.10
2018-09-19T05:18:29.969Z,4.87
2018-09-19T05:20:59.677Z,4.60
2018-09-19T05:23:28.818Z,5.30
2018-09-19T05:25:58.746Z,5.00
2018-09-19T05:28:27.768Z,5.10
2018-09-19T05:30:57.435Z,4.60
2018-09-19T05:33:26.436Z,4.90
2018-09-19T05:35:55.359Z,5.10
2018-09-19T05:38:24.623Z,4.23
2018-09-19T05:40:53.498Z,4.17
2018-09-19T05:43:22.997Z,3.83
2018-09-19T05:45:52.177Z,4.97
2018-09-19T05:48:21.829Z,3.60
2018-09-19T05:50:50.722Z,4.80
2018-09-19T05:53:20.177Z,4.07
2018-09-19T05:55:49.257Z,4.67
2018-09-19T05:58:19.806Z,4.67
2018-09-19T06:00:49.703Z,3.90
2018-09-19T06:03:18.868Z,3.87
2018-09-19T06:05:48.990Z,3.83
2018-09-19T06:08:18.643Z,3.47
2018-09-19T06:10:48.254Z,4.47
2018-09-19T06:13:17.310Z,3.10
2018-09-19T06:15:46.473Z,3.80
2018-09-19T06:18:16.433Z,3.10
2018-09-19T06:20:46.999Z,3.70
2018-09-19T06:23:15.843Z,3.67
2018-09-19T06:25:44.649Z,3.97
2018-09-19T06:28:13.481Z,3.10
2018-09-19T06:30:42.883Z,3.80
2018-09-19T06:33:11.771Z,2.90
2018-09-19T06:35:40.760Z,4.70
2018-09-19T06:38:09.637Z,2.63
2018-09-19T06:40:38.538Z,3.10
2018-09-19T06:43:07.475Z,2.70
2018-09-19T06:45:36.460Z,2.90
2018-09-19T06:48:06.325Z,2.50
2018-09-19T06:50:36.098Z,4.37
2018-09-19T06:53:05.989Z,2.87
2018-09-19T06:55:34.850Z,2.80
2018-09-19T06:58:04.362Z,2.70
2018-09-19T07:00:34.677Z,2.67
2018-09-19T07:03:03.517Z,2.63
2018-09-19T07:05:32.361Z,3.20
2018-09-19T07:08:01.885Z,2.90
2018-09-19T07:10:31.223Z,2.93
2018-09-19T07:13:00.354Z,2.60
2018-09-19T07:15:29.526Z,2.63
2018-09-19T07:17:59.216Z,2.93
2018-09-19T07:20:29.254Z,2.77
2018-09-19T07:22:58.353Z,2.47
2018-09-19T07:25:28.397Z,2.37
2018-09-19T07:27:57.228Z,2.47
2018-09-19T07:30:26.613Z,2.20
2018-09-19T07:32:55.533Z,2.70
2018-09-19T07:35:38.755Z,2.87
2018-09-19T07:38:07.659Z,2.30
2018-09-19T07:40:36.904Z,3.63
2018-09-19T07:43:05.809Z,2.30
2018-09-19T07:45:34.718Z,3.07
2018-09-19T07:48:04.111Z,2.50
2018-09-19T07:50:33.224Z,3.07
2018-09-19T07:53:04.189Z,2.30
2018-09-19T07:55:34.504Z,2.93
2018-09-19T07:58:03.868Z,2.30
2018-09-19T08:00:33.774Z,2.80
2018-09-19T08:03:02.528Z,2.47
2018-09-19T08:05:31.469Z,2.60
2018-09-19T08:08:01.184Z,2.30
2018-09-19T08:10:30.887Z,2.47
2018-09-19T08:12:59.793Z,2.47
2018-09-19T08:15:29.281Z,2.30
2018-09-19T08:17:58.693Z,2.97
2018-09-19T08:20:28.325Z,2.67
2018-09-19T08:22:57.128Z,3.00
2018-09-19T08:25:25.960Z,2.70
2018-09-19T08:27:54.854Z,3.03
2018-09-19T08:30:24.753Z,2.87
2018-09-19T08:32:53.563Z,3.27
2018-09-19T08:35:22.383Z,2.60
2018-09-19T08:37:51.190Z,3.27
2018-09-19T08:40:20.066Z,3.17
2018-09-19T08:42:49.236Z,3.50
2018-09-19T08:45:19.207Z,2.20
2018-09-19T08:47:48.941Z,4.23
2018-09-19T08:50:18.421Z,2.87
2018-09-19T08:52:48.049Z,3.17
2018-09-19T08:55:17.535Z,2.80
2018-09-19T08:57:46.816Z,3.30
2018-09-19T09:00:16.929Z,2.50
2018-09-19T09:02:45.915Z,3.30
2018-09-19T09:05:14.770Z,3.10
2018-09-19T09:07:44.100Z,3.20
2018-09-19T09:10:12.942Z,2.67
2018-09-19T09:12:42.401Z,4.47
2018-09-19T09:15:11.219Z,2.63
2018-09-19T09:17:40.724Z,3.50
2018-09-19T09:20:10.154Z,2.60
2018-09-19T09:22:38.994Z,2.70
2018-09-19T09:25:07.806Z,2.63
2018-09-19T09:27:37.159Z,3.93
2018-09-19T09:30:06.743Z,3.00
2018-09-19T09:32:35.862Z,3.60
2018-09-19T09:35:04.676Z,2.97
2018-09-19T09:37:33.617Z,2.53
2018-09-19T09:40:02.467Z,3.00
2018-09-19T09:42:32.463Z,3.30
2018-09-19T09:45:01.349Z,2.70
2018-09-19T09:47:31.046Z,2.97
2018-09-19T09:49:59.918Z,3.00
2018-09-19T09:52:29.346Z,2.83
2018-09-19T09:54:58.154Z,3.17
2018-09-19T09:57:26.977Z,2.93
2018-09-19T09:59:56.457Z,2.97
2018-09-19T10:02:25.272Z,2.70
2018-09-19T10:04:54.061Z,3.10
2018-09-19T10:07:23.925Z,2.70
2018-09-19T10:09:52.736Z,3.03
2018-09-19T10:12:22.037Z,2.83
2018-09-19T10:14:50.894Z,2.50
2018-09-19T10:17:19.676Z,3.17
2018-09-19T10:19:49.998Z,2.37
2018-09-19T10:22:19.061Z,2.87
2018-09-19T10:24:54.399Z,2.67
2018-09-19T10:27:23.185Z,2.73
2018-09-19T10:29:52.604Z,2.70
2018-09-19T10:32:21.409Z,2.73
2018-09-19T10:34:50.207Z,3.53
2018-09-19T10:37:19.754Z,2.60
2018-09-19T10:39:48.862Z,2.63
2018-09-19T10:42:19.247Z,3.17
2018-09-19T10:44:48.919Z,2.80
2018-09-19T10:47:19.362Z,3.00
2018-09-19T10:49:49.698Z,2.87
2018-09-19T10:52:20.085Z,3.30
2018-09-19T10:54:49.496Z,2.80
2018-09-19T10:57:18.497Z,2.83
2018-09-19T10:59:47.840Z,2.83
2018-09-19T11:02:16.855Z,3.30
2018-09-19T11:04:46.032Z,2.93
2018-09-19T11:07:15.531Z,3.33
2018-09-19T11:09:44.395Z,2.97
2018-09-19T11:12:13.753Z,3.60
2018-09-19T11:14:42.563Z,2.77
2018-09-19T11:17:11.436Z,4.13
2018-09-19T11:19:40.990Z,3.00
2018-09-19T11:22:09.774Z,3.10
2018-09-19T11:24:38.617Z,3.67
2018-09-19T11:27:07.456Z,3.30
2018-09-19T11:29:37.112Z,2.50
2018-09-19T11:32:05.939Z,3.77
2018-09-19T11:34:34.894Z,3.33
2018-09-19T11:37:03.783Z,4.20
2018-09-19T11:39:34.213Z,2.83
2018-09-19T11:42:03.011Z,3.30
2018-09-19T11:44:31.905Z,3.23
2018-09-19T11:47:01.468Z,3.17
2018-09-19T11:49:30.387Z,3.13
2018-09-19T11:52:00.334Z,3.77
2018-09-19T11:54:29.228Z,3.40
2018-09-19T11:56:58.090Z,3.10
2018-09-19T11:59:27.565Z,2.57
2018-09-19T12:01:56.459Z,3.50
2018-09-19T12:04:25.462Z,2.50
2018-09-19T12:06:55.051Z,3.53
2018-09-19T12:09:44.332Z,3.20
2018-09-19T12:12:34.395Z,2.90
2018-09-19T12:15:23.595Z,3.73
2018-09-19T12:17:52.938Z,4.13
2018-09-19T12:20:23.212Z,2.63
2018-09-19T12:22:52.149Z,3.80
2018-09-19T12:25:20.967Z,3.50
2018-09-19T12:27:49.829Z,3.10
2018-09-19T12:30:19.117Z,3.67
2018-09-19T12:32:49.009Z,2.83
2018-09-19T12:35:18.645Z,4.97
2018-09-19T12:37:47.593Z,2.73
2018-09-19T12:40:16.644Z,3.20
2018-09-19T12:42:45.509Z,3.13
2018-09-19T12:45:14.416Z,3.57
2018-09-19T12:47:43.814Z,3.30
2018-09-19T12:50:13.297Z,4.50
2018-09-19T12:52:42.894Z,3.40
2018-09-19T12:55:11.905Z,3.83
2018-09-19T12:57:40.687Z,3.33
2018-09-19T13:00:10.325Z,2.97
2018-09-19T13:02:39.153Z,3.30
2018-09-19T13:05:08.449Z,3.43
2018-09-19T13:07:38.065Z,2.90
2018-09-19T13:10:07.013Z,3.20
2018-09-19T13:12:37.036Z,3.00
2018-09-19T13:15:06.743Z,3.23
2018-09-19T13:17:36.125Z,3.47
2018-09-19T13:20:05.964Z,2.80
2018-09-19T13:22:34.779Z,2.63
2018-09-19T13:25:03.938Z,3.13
2018-09-19T13:27:32.867Z,3.27
2018-09-19T13:30:02.229Z,3.13
2018-09-19T13:32:31.057Z,3.37
2018-09-19T13:35:01.034Z,3.20
2018-09-19T13:37:29.863Z,3.13
2018-09-19T13:39:59.152Z,2.93
2018-09-19T13:42:28.028Z,3.07
2018-09-19T13:44:56.841Z,3.50
2018-09-19T13:47:26.297Z,3.37
2018-09-19T13:49:59.335Z,2.77
2018-09-19T13:52:29.002Z,3.80
2018-09-19T13:54:58.020Z,3.00
2018-09-19T13:57:26.830Z,3.43
2018-09-19T13:59:56.285Z,2.97
2018-09-19T14:02:26.036Z,3.47
2018-09-19T14:04:54.891Z,3.00
2018-09-19T14:07:24.746Z,3.20
2018-09-19T14:09:53.596Z,3.33
2018-09-19T14:12:23.064Z,3.13
2018-09-19T14:14:52.617Z,3.43
2018-09-19T14:17:21.464Z,3.30
2018-09-19T14:19:50.855Z,3.13
2018-09-19T14:22:19.764Z,3.20
2018-09-19T14:24:48.963Z,3.67
2018-09-19T14:27:18.081Z,3.10
2018-09-19T14:29:53.425Z,4.10
2018-09-19T14:32:22.926Z,3.27
2018-09-19T14:34:56.729Z,3.57
2018-09-19T14:37:25.583Z,2.97
2018-09-19T14:39:54.418Z,3.80
2018-09-19T14:42:23.414Z,3.73
2018-09-19T14:44:52.284Z,3.60
2018-09-19T14:47:22.473Z,3.50
2018-09-19T14:49:51.322Z,3.47
2018-09-19T14:52:20.916Z,3.73
2018-09-19T14:54:50.665Z,4.27
2018-09-19T14:57:19.448Z,3.40
2018-09-19T14:59:49.245Z,3.30
2018-09-19T15:02:18.475Z,3.80
2018-09-19T15:04:47.580Z,3.83
2018-09-19T15:07:17.188Z,4.00
2018-09-19T15:09:47.069Z,3.87
2018-09-19T15:12:16.552Z,3.63
2018-09-19T15:14:46.270Z,3.33
2018-09-19T15:17:15.440Z,4.03
2018-09-19T15:19:45.844Z,3.67
2018-09-19T15:22:14.828Z,3.53
2018-09-19T15:24:43.972Z,3.47
2018-09-19T15:27:13.169Z,3.20
2018-09-19T15:29:42.819Z,3.13
2018-09-19T15:32:11.677Z,4.00
2018-09-19T15:34:40.514Z,2.80
2018-09-19T15:37:09.354Z,3.37
2018-09-19T15:39:38.173Z,3.07
2018-09-19T15:42:07.243Z,4.57
2018-09-19T15:44:36.118Z,3.17
2018-09-19T15:47:05.397Z,3.60
2018-09-19T15:49:34.233Z,3.00
2018-09-19T15:52:03.832Z,3.33
2018-09-19T15:54:32.616Z,2.63
2018-09-19T15:57:01.591Z,3.73
2018-09-19T15:59:31.202Z,2.70
2018-09-19T16:02:00.056Z,3.93
2018-09-19T16:04:28.934Z,2.73
2018-09-19T16:06:58.489Z,3.40
2018-09-19T16:09:27.281Z,3.67
2018-09-19T16:11:56.861Z,3.30
2018-09-19T16:14:26.302Z,4.10
2018-09-19T16:16:55.172Z,2.73
2018-09-19T16:19:24.490Z,3.97
2018-09-19T16:21:53.835Z,2.90
2018-09-19T16:24:22.637Z,4.20
2018-09-19T16:26:51.940Z,3.00
2018-09-19T16:29:21.501Z,4.97
2018-09-19T16:31:50.287Z,2.83
2018-09-19T16:34:19.532Z,3.73
2018-09-19T16:36:48.673Z,3.07
2018-09-19T16:39:17.762Z,3.80
2018-09-19T16:41:47.023Z,2.97
2018-09-19T16:44:16.938Z,5.73
2018-09-19T16:46:46.774Z,2.83
2018-09-19T16:49:15.594Z,3.80
2018-09-19T16:51:44.566Z,3.10
2018-09-19T16:54:14.164Z,3.67
2018-09-19T16:56:42.968Z,3.00
2018-09-19T16:59:12.542Z,6.87
2018-09-19T17:01:41.365Z,3.07
2018-09-19T17:04:10.251Z,3.77
2018-09-19T17:06:39.693Z,3.13
2018-09-19T17:09:09.378Z,3.40
2018-09-19T17:11:38.848Z,3.27
2018-09-19T17:14:07.680Z,3.60
2018-09-19T17:16:37.491Z,3.30
2018-09-19T17:19:06.775Z,4.10
2018-09-19T17:21:36.252Z,3.43
2018-09-19T17:24:05.543Z,3.50
2018-09-19T17:26:34.356Z,3.60
2018-09-19T17:29:03.799Z,3.37
2018-09-19T17:31:32.800Z,3.73
2018-09-19T17:34:01.808Z,3.47
2018-09-19T17:36:30.622Z,3.70
2018-09-19T17:38:59.466Z,3.27
2018-09-19T17:41:28.505Z,3.80
2018-09-19T17:43:57.350Z,3.47
2018-09-19T17:46:26.874Z,3.60
2018-09-19T17:48:55.788Z,4.70
2018-09-19T17:51:24.564Z,3.67
2018-09-19T17:53:54.127Z,4.70
2018-09-19T17:56:23.110Z,3.53
2018-09-19T17:58:52.377Z,3.70
2018-09-19T18:01:22.164Z,3.47
2018-09-19T18:03:51.057Z,4.43
2018-09-19T18:06:20.572Z,4.10
2018-09-19T18:08:49.930Z,4.43
2018-09-19T18:11:19.676Z,3.90
2018-09-19T18:13:48.932Z,4.73
2018-09-19T18:16:18.722Z,3.97
2018-09-19T18:18:48.584Z,5.27
2018-09-19T18:21:18.196Z,3.80
2018-09-19T18:23:47.037Z,4.00
2018-09-19T18:26:16.871Z,4.60
2018-09-19T18:28:46.140Z,3.90
2018-09-19T18:31:14.952Z,4.93
2018-09-19T18:33:43.769Z,3.67
2018-09-19T18:36:12.627Z,4.33
2018-09-19T18:38:41.543Z,3.67
2018-09-19T18:41:10.514Z,4.40
2018-09-19T18:43:39.352Z,4.33
2018-09-19T18:46:08.911Z,4.77
2018-09-19T18:48:37.695Z,4.20
2018-09-19T18:51:06.592Z,4.07
2018-09-19T18:53:35.940Z,3.93
2018-09-19T18:56:04.760Z,3.53
2018-09-19T18:58:34.151Z,4.23
2018-09-19T19:01:03.485Z,4.57
2018-09-19T19:03:32.475Z,3.73
2018-09-19T19:06:01.653Z,4.23
2018-09-19T19:08:31.174Z,4.20
2018-09-19T19:11:00.757Z,4.23
2018-09-19T19:13:29.589Z,4.10
2018-09-19T19:15:59.616Z,4.13
2018-09-19T19:18:29.204Z,4.50
2018-09-19T19:20:59.115Z,4.20
2018-09-19T19:23:27.961Z,4.17
2018-09-19T19:25:57.445Z,4.17
2018-09-19T19:28:26.315Z,5.30
2018-09-19T19:30:55.880Z,3.80
2018-09-19T19:33:24.754Z,4.50
2018-09-19T19:35:53.644Z,3.63
2018-09-19T19:38:22.468Z,4.33
2018-09-19T19:40:51.296Z,3.60
2018-09-19T19:43:20.193Z,4.33
2018-09-19T19:45:49.394Z,3.97
2018-09-19T19:48:19.175Z,3.87
2018-09-19T19:50:48.766Z,3.70
2018-09-19T19:53:19.063Z,3.90
2018-09-19T19:55:48.650Z,3.80
2018-09-19T19:58:18.340Z,4.47
2018-09-19T20:00:48.336Z,3.97
2018-09-19T20:03:17.407Z,5.17
2018-09-19T20:05:47.016Z,4.13
2018-09-19T20:08:17.461Z,5.80
2018-09-19T20:10:47.677Z,3.70
2018-09-19T20:13:17.296Z,3.80
2018-09-19T20:15:47.059Z,3.70
2018-09-19T20:18:17.136Z,5.10
2018-09-19T20:20:46.757Z,3.60
2018-09-19T20:23:15.742Z,5.10
2018-09-19T20:25:45.454Z,4.70
2018-09-19T20:28:14.312Z,4.70
2018-09-19T20:30:43.537Z,3.97
2018-09-19T20:33:12.387Z,4.80
2018-09-19T20:35:41.212Z,4.10
2018-09-19T20:38:10.060Z,4.60
2018-09-19T20:40:38.922Z,4.43
2018-09-19T20:43:07.989Z,4.30
2018-09-19T20:45:36.924Z,4.00
2018-09-19T20:48:06.411Z,4.80
2018-09-19T20:50:35.304Z,4.57
2018-09-19T20:53:05.004Z,4.00
2018-09-19T20:55:33.918Z,4.57
2018-09-19T20:58:03.518Z,4.20
2018-09-19T21:00:33.329Z,4.33
2018-09-19T21:03:02.568Z,4.77
2018-09-19T21:05:31.588Z,5.37
2018-09-19T21:08:01.052Z,4.83
2018-09-19T21:10:30.382Z,6.43
2018-09-19T21:12:59.645Z,4.57
2018-09-19T21:15:29.239Z,4.70
2018-09-19T21:17:58.458Z,4.40
2018-09-19T21:20:28.307Z,5.10
2018-09-19T21:22:57.091Z,4.57
2018-09-19T21:25:26.880Z,5.03
2018-09-19T21:27:55.734Z,4.27
2018-09-19T21:30:25.154Z,4.57
2018-09-19T21:32:53.988Z,4.77
2018-09-19T21:35:22.924Z,5.00
2018-09-19T21:37:51.915Z,5.27
2018-09-19T21:40:21.519Z,4.57
2018-09-19T21:42:50.558Z,4.83
2018-09-19T21:45:19.992Z,4.13
2018-09-19T21:47:49.830Z,4.83
2018-09-19T21:50:19.824Z,4.77
2018-09-19T21:52:49.615Z,5.27
2018-09-19T21:55:19.288Z,4.70
2018-09-19T21:57:48.649Z,4.63
2018-09-19T22:00:18.702Z,4.70
2018-09-19T22:02:47.738Z,5.63
2018-09-19T22:05:16.830Z,4.90
2018-09-19T22:07:47.131Z,5.87
2018-09-19T22:10:16.358Z,4.57
2018-09-19T22:12:45.621Z,5.47
2018-09-19T22:15:15.533Z,3.93
2018-09-19T22:17:45.747Z,4.87
2018-09-19T22:20:15.099Z,4.70
2018-09-19T22:22:44.093Z,5.50
2018-09-19T22:25:12.937Z,5.10
2018-09-19T22:27:41.875Z,5.97
2018-09-19T22:30:11.579Z,4.90
2018-09-19T22:32:40.468Z,6.17
2018-09-19T22:35:09.306Z,5.50
2018-09-19T22:37:38.195Z,5.10
2018-09-19T22:40:07.118Z,4.93
2018-09-19T22:42:36.347Z,5.83
2018-09-19T22:45:05.372Z,5.33
2018-09-19T22:47:34.820Z,5.73
2018-09-19T22:50:03.773Z,5.10
2018-09-19T22:52:33.439Z,4.90
2018-09-19T22:55:02.804Z,4.73
2018-09-19T22:57:31.832Z,5.23
2018-09-19T23:00:01.249Z,4.47
2018-09-19T23:02:30.168Z,4.47
2018-09-19T23:04:59.020Z,5.10
2018-09-19T23:07:28.640Z,4.87
2018-09-19T23:09:58.088Z,6.10
2018-09-19T23:12:33.096Z,4.50
2018-09-19T23:15:02.817Z,5.00
2018-09-19T23:17:32.033Z,4.80
2018-09-19T23:20:01.884Z,4.97
2018-09-19T23:22:30.896Z,4.57
2018-09-19T23:24:59.909Z,5.90
2018-09-19T23:27:29.767Z,3.90
2018-09-19T23:29:59.338Z,4.77
2018-09-19T23:32:28.246Z,4.43
2018-09-19T23:34:57.091Z,4.87
2018-09-19T23:37:25.952Z,4.40
2018-09-19T23:39:54.821Z,4.90
2018-09-19T23:42:23.844Z,4.23
2018-09-19T23:44:52.998Z,4.53
2018-09-19T23:47:22.396Z,4.23
2018-09-19T23:49:51.239Z,4.53
2018-09-19T23:52:20.708Z,4.13
2018-09-19T23:54:49.654Z,4.33
2018-09-19T23:57:18.721Z,3.90
2018-09-19T23:59:48.430Z,3.60
